Terminal Aerodrome Forecast
Issued by NWS Green Bay, WI

Home | Current Version | Previous Version | Text Only | Print | Product List | Glossary Off
Versions: 1 2 3 4 5 6 7 8 9 10 11 12 13 14 15 16 17 18 19 20 21 22 23 24 25

000
FTUS43 KGRB 271140
TAFGRB
TAF
KGRB 271140Z 2712/2812 07004KT P6SM -SHRA SCT025 OVC050
      TEMPO 2712/2714 3SM TSRA BKN025CB
     FM271400 08006KT 6SM SHRA BR OVC026
     FM271600 07008KT 4SM SHRA BR OVC007
     FM272000 02004KT 6SM BR BKN011
     FM281000 26002KT 2SM BR BKN009=

USA.gov is the U.S. government's official web portal to all federal, state and local government web resources and services.